sensor_id;sensor_type;location;lat;lon;timestamp;P1;durP1;ratioP1;P2;durP2;ratioP2
19525;SDS011;9907;42.676;26.348;2022-10-16T00:01:10;3.93;;;2.60;;
19525;SDS011;9907;42.676;26.348;2022-10-16T00:03:38;3.60;;;2.20;;
19525;SDS011;9907;42.676;26.348;2022-10-16T00:06:04;3.00;;;2.40;;
19525;SDS011;9907;42.676;26.348;2022-10-16T00:08:31;5.00;;;2.30;;
19525;SDS011;9907;42.676;26.348;2022-10-16T00:11:07;2.77;;;2.40;;
19525;SDS011;9907;42.676;26.348;2022-10-16T00:13:35;3.30;;;2.50;;
19525;SDS011;9907;42.676;26.348;2022-10-16T00:16:01;3.53;;;2.57;;
19525;SDS011;9907;42.676;26.348;2022-10-16T00:18:28;2.67;;;2.47;;
19525;SDS011;9907;42.676;26.348;2022-10-16T00:20:55;3.70;;;2.50;;
19525;SDS011;9907;42.676;26.348;2022-10-16T00:23:21;4.83;;;2.77;;
19525;SDS011;9907;42.676;26.348;2022-10-16T00:26:01;3.00;;;2.70;;
19525;SDS011;9907;42.676;26.348;2022-10-16T00:28:28;5.13;;;2.70;;
19525;SDS011;9907;42.676;26.348;2022-10-16T00:30:54;3.33;;;2.70;;
19525;SDS011;9907;42.676;26.348;2022-10-16T00:33:20;4.57;;;2.80;;
19525;SDS011;9907;42.676;26.348;2022-10-16T00:35:46;6.17;;;3.07;;
19525;SDS011;9907;42.676;26.348;2022-10-16T00:38:12;2.77;;;2.50;;
19525;SDS011;9907;42.676;26.348;2022-10-16T00:40:37;6.30;;;2.90;;
19525;SDS011;9907;42.676;26.348;2022-10-16T00:43:07;6.17;;;2.93;;
19525;SDS011;9907;42.676;26.348;2022-10-16T00:45:37;3.90;;;3.30;;
19525;SDS011;9907;42.676;26.348;2022-10-16T00:48:02;4.27;;;3.47;;
19525;SDS011;9907;42.676;26.348;2022-10-16T00:50:28;6.27;;;3.33;;
19525;SDS011;9907;42.676;26.348;2022-10-16T00:52:56;5.30;;;3.17;;
19525;SDS011;9907;42.676;26.348;2022-10-16T00:55:23;4.13;;;3.07;;
19525;SDS011;9907;42.676;26.348;2022-10-16T00:57:50;4.93;;;3.50;;
19525;SDS011;9907;42.676;26.348;2022-10-16T01:00:18;4.43;;;3.20;;
19525;SDS011;9907;42.676;26.348;2022-10-16T01:02:56;5.93;;;3.53;;
19525;SDS011;9907;42.676;26.348;2022-10-16T01:05:24;5.17;;;3.27;;
19525;SDS011;9907;42.676;26.348;2022-10-16T01:11:05;5.17;;;3.60;;
19525;SDS011;9907;42.676;26.348;2022-10-16T01:13:43;5.87;;;3.77;;
19525;SDS011;9907;42.676;26.348;2022-10-16T01:16:16;6.27;;;4.23;;
19525;SDS011;9907;42.676;26.348;2022-10-16T01:21:23;5.60;;;3.73;;
19525;SDS011;9907;42.676;26.348;2022-10-16T01:24:15;7.17;;;4.07;;
19525;SDS011;9907;42.676;26.348;2022-10-16T01:35:02;5.70;;;3.03;;
19525;SDS011;9907;42.676;26.348;2022-10-16T01:37:41;6.57;;;3.40;;
19525;SDS011;9907;42.676;26.348;2022-10-16T01:40:13;3.23;;;2.83;;
19525;SDS011;9907;42.676;26.348;2022-10-16T01:42:42;5.00;;;3.10;;
19525;SDS011;9907;42.676;26.348;2022-10-16T01:45:13;4.70;;;3.90;;
19525;SDS011;9907;42.676;26.348;2022-10-16T01:47:43;4.33;;;3.33;;
19525;SDS011;9907;42.676;26.348;2022-10-16T01:50:09;4.20;;;3.50;;
19525;SDS011;9907;42.676;26.348;2022-10-16T01:52:35;6.13;;;4.43;;
19525;SDS011;9907;42.676;26.348;2022-10-16T01:55:04;8.03;;;5.03;;
19525;SDS011;9907;42.676;26.348;2022-10-16T01:57:33;5.40;;;4.03;;
19525;SDS011;9907;42.676;26.348;2022-10-16T02:00:05;5.13;;;4.00;;
19525;SDS011;9907;42.676;26.348;2022-10-16T02:02:34;6.03;;;3.80;;
19525;SDS011;9907;42.676;26.348;2022-10-16T02:05:34;4.80;;;3.30;;
19525;SDS011;9907;42.676;26.348;2022-10-16T02:07:53;4.60;;;3.67;;
19525;SDS011;9907;42.676;26.348;2022-10-16T02:10:19;3.47;;;2.80;;
19525;SDS011;9907;42.676;26.348;2022-10-16T02:12:47;3.87;;;2.97;;
19525;SDS011;9907;42.676;26.348;2022-10-16T02:15:19;5.57;;;3.87;;
19525;SDS011;9907;42.676;26.348;2022-10-16T02:17:44;4.40;;;3.07;;
19525;SDS011;9907;42.676;26.348;2022-10-16T02:20:10;3.90;;;3.50;;
19525;SDS011;9907;42.676;26.348;2022-10-16T02:22:38;5.70;;;3.67;;
19525;SDS011;9907;42.676;26.348;2022-10-16T02:25:18;3.60;;;3.27;;
19525;SDS011;9907;42.676;26.348;2022-10-16T02:30:25;4.70;;;3.60;;
19525;SDS011;9907;42.676;26.348;2022-10-16T02:32:57;4.30;;;3.90;;
19525;SDS011;9907;42.676;26.348;2022-10-16T02:35:26;6.43;;;4.37;;
19525;SDS011;9907;42.676;26.348;2022-10-16T02:37:53;4.93;;;4.33;;
19525;SDS011;9907;42.676;26.348;2022-10-16T02:40:20;5.40;;;4.73;;
19525;SDS011;9907;42.676;26.348;2022-10-16T02:42:49;4.70;;;3.90;;
19525;SDS011;9907;42.676;26.348;2022-10-16T02:45:15;5.93;;;3.90;;
19525;SDS011;9907;42.676;26.348;2022-10-16T02:47:41;8.30;;;4.30;;
19525;SDS011;9907;42.676;26.348;2022-10-16T02:50:07;6.13;;;4.23;;
19525;SDS011;9907;42.676;26.348;2022-10-16T02:52:32;5.10;;;3.67;;
19525;SDS011;9907;42.676;26.348;2022-10-16T02:54:58;4.50;;;4.10;;
19525;SDS011;9907;42.676;26.348;2022-10-16T02:57:23;5.33;;;4.10;;
19525;SDS011;9907;42.676;26.348;2022-10-16T02:59:49;5.90;;;4.60;;
19525;SDS011;9907;42.676;26.348;2022-10-16T03:02:14;8.37;;;5.23;;
19525;SDS011;9907;42.676;26.348;2022-10-16T03:04:40;5.67;;;5.07;;
19525;SDS011;9907;42.676;26.348;2022-10-16T03:07:05;6.50;;;5.23;;
19525;SDS011;9907;42.676;26.348;2022-10-16T03:09:31;5.53;;;5.03;;
19525;SDS011;9907;42.676;26.348;2022-10-16T03:11:56;8.50;;;4.90;;
19525;SDS011;9907;42.676;26.348;2022-10-16T03:14:22;6.70;;;5.10;;
19525;SDS011;9907;42.676;26.348;2022-10-16T03:16:47;6.80;;;4.40;;
19525;SDS011;9907;42.676;26.348;2022-10-16T03:19:13;5.77;;;5.23;;
19525;SDS011;9907;42.676;26.348;2022-10-16T03:21:38;8.53;;;5.30;;
19525;SDS011;9907;42.676;26.348;2022-10-16T03:24:04;9.10;;;5.30;;
19525;SDS011;9907;42.676;26.348;2022-10-16T03:26:29;5.80;;;4.93;;
19525;SDS011;9907;42.676;26.348;2022-10-16T03:28:55;5.47;;;4.80;;
19525;SDS011;9907;42.676;26.348;2022-10-16T03:31:20;9.27;;;5.57;;
19525;SDS011;9907;42.676;26.348;2022-10-16T03:33:45;6.40;;;5.63;;
19525;SDS011;9907;42.676;26.348;2022-10-16T03:36:11;6.03;;;5.03;;
19525;SDS011;9907;42.676;26.348;2022-10-16T03:38:36;5.60;;;5.10;;
19525;SDS011;9907;42.676;26.348;2022-10-16T03:41:02;5.80;;;5.00;;
19525;SDS011;9907;42.676;26.348;2022-10-16T03:43:34;8.70;;;5.70;;
19525;SDS011;9907;42.676;26.348;2022-10-16T03:45:59;6.60;;;5.60;;
19525;SDS011;9907;42.676;26.348;2022-10-16T03:48:25;7.50;;;5.30;;
19525;SDS011;9907;42.676;26.348;2022-10-16T03:50:50;7.73;;;5.00;;
19525;SDS011;9907;42.676;26.348;2022-10-16T03:53:16;5.77;;;4.80;;
19525;SDS011;9907;42.676;26.348;2022-10-16T03:55:42;5.87;;;5.27;;
19525;SDS011;9907;42.676;26.348;2022-10-16T03:58:08;6.73;;;6.03;;
19525;SDS011;9907;42.676;26.348;2022-10-16T04:00:34;7.83;;;6.50;;
19525;SDS011;9907;42.676;26.348;2022-10-16T04:03:00;7.97;;;6.30;;
19525;SDS011;9907;42.676;26.348;2022-10-16T04:05:25;8.97;;;6.67;;
19525;SDS011;9907;42.676;26.348;2022-10-16T04:07:51;9.67;;;7.07;;
19525;SDS011;9907;42.676;26.348;2022-10-16T04:10:16;10.13;;;7.30;;
19525;SDS011;9907;42.676;26.348;2022-10-16T04:12:42;9.20;;;7.47;;
19525;SDS011;9907;42.676;26.348;2022-10-16T04:15:07;9.63;;;7.87;;
19525;SDS011;9907;42.676;26.348;2022-10-16T04:17:33;9.63;;;7.73;;
19525;SDS011;9907;42.676;26.348;2022-10-16T04:19:59;8.00;;;7.20;;
19525;SDS011;9907;42.676;26.348;2022-10-16T04:22:24;11.17;;;7.50;;
19525;SDS011;9907;42.676;26.348;2022-10-16T04:24:50;9.70;;;7.77;;
19525;SDS011;9907;42.676;26.348;2022-10-16T04:27:15;9.70;;;8.70;;
19525;SDS011;9907;42.676;26.348;2022-10-16T04:29:41;9.50;;;7.90;;
19525;SDS011;9907;42.676;26.348;2022-10-16T04:32:07;10.77;;;8.90;;
19525;SDS011;9907;42.676;26.348;2022-10-16T04:34:34;11.50;;;8.30;;
19525;SDS011;9907;42.676;26.348;2022-10-16T04:36:59;10.73;;;8.43;;
19525;SDS011;9907;42.676;26.348;2022-10-16T04:39:25;14.47;;;10.60;;
19525;SDS011;9907;42.676;26.348;2022-10-16T04:41:50;15.80;;;12.23;;
19525;SDS011;9907;42.676;26.348;2022-10-16T04:44:16;16.20;;;12.60;;
19525;SDS011;9907;42.676;26.348;2022-10-16T04:46:41;16.43;;;12.13;;
19525;SDS011;9907;42.676;26.348;2022-10-16T04:49:07;11.20;;;9.27;;
19525;SDS011;9907;42.676;26.348;2022-10-16T04:51:32;12.90;;;8.53;;
19525;SDS011;9907;42.676;26.348;2022-10-16T04:53:58;11.13;;;8.80;;
19525;SDS011;9907;42.676;26.348;2022-10-16T04:56:23;10.37;;;9.03;;
19525;SDS011;9907;42.676;26.348;2022-10-16T04:58:49;11.97;;;9.77;;
19525;SDS011;9907;42.676;26.348;2022-10-16T05:01:14;12.33;;;9.30;;
19525;SDS011;9907;42.676;26.348;2022-10-16T05:03:40;17.97;;;8.90;;
19525;SDS011;9907;42.676;26.348;2022-10-16T05:06:06;12.80;;;9.80;;
19525;SDS011;9907;42.676;26.348;2022-10-16T05:08:31;12.93;;;9.33;;
19525;SDS011;9907;42.676;26.348;2022-10-16T05:10:57;12.20;;;10.17;;
19525;SDS011;9907;42.676;26.348;2022-10-16T05:13:23;12.23;;;9.27;;
19525;SDS011;9907;42.676;26.348;2022-10-16T05:15:48;15.83;;;12.47;;
19525;SDS011;9907;42.676;26.348;2022-10-16T05:18:14;10.33;;;9.23;;
19525;SDS011;9907;42.676;26.348;2022-10-16T05:20:40;17.60;;;12.90;;
19525;SDS011;9907;42.676;26.348;2022-10-16T05:23:06;16.13;;;12.40;;
19525;SDS011;9907;42.676;26.348;2022-10-16T05:25:32;15.20;;;10.03;;
19525;SDS011;9907;42.676;26.348;2022-10-16T05:27:57;15.97;;;11.97;;
19525;SDS011;9907;42.676;26.348;2022-10-16T05:30:23;13.27;;;10.90;;
19525;SDS011;9907;42.676;26.348;2022-10-16T05:32:49;12.07;;;10.50;;
19525;SDS011;9907;42.676;26.348;2022-10-16T05:35:15;16.87;;;12.23;;
19525;SDS011;9907;42.676;26.348;2022-10-16T05:37:41;21.03;;;15.77;;
19525;SDS011;9907;42.676;26.348;2022-10-16T05:40:07;20.23;;;14.70;;
19525;SDS011;9907;42.676;26.348;2022-10-16T05:42:33;18.00;;;13.33;;
19525;SDS011;9907;42.676;26.348;2022-10-16T05:44:59;20.97;;;12.43;;
19525;SDS011;9907;42.676;26.348;2022-10-16T05:47:24;16.50;;;11.07;;
19525;SDS011;9907;42.676;26.348;2022-10-16T05:49:50;12.67;;;9.83;;
19525;SDS011;9907;42.676;26.348;2022-10-16T05:52:15;12.87;;;9.67;;
19525;SDS011;9907;42.676;26.348;2022-10-16T05:54:41;13.03;;;8.53;;
19525;SDS011;9907;42.676;26.348;2022-10-16T05:57:06;10.80;;;7.63;;
19525;SDS011;9907;42.676;26.348;2022-10-16T05:59:32;10.07;;;8.27;;
19525;SDS011;9907;42.676;26.348;2022-10-16T06:01:57;12.00;;;8.37;;
19525;SDS011;9907;42.676;26.348;2022-10-16T06:04:23;9.87;;;8.23;;
19525;SDS011;9907;42.676;26.348;2022-10-16T06:06:48;9.70;;;8.73;;
19525;SDS011;9907;42.676;26.348;2022-10-16T06:09:13;10.57;;;7.77;;
19525;SDS011;9907;42.676;26.348;2022-10-16T06:11:39;8.70;;;6.17;;
19525;SDS011;9907;42.676;26.348;2022-10-16T06:14:04;8.57;;;5.90;;
19525;SDS011;9907;42.676;26.348;2022-10-16T06:16:33;7.27;;;5.50;;
19525;SDS011;9907;42.676;26.348;2022-10-16T06:19:00;6.80;;;5.43;;
19525;SDS011;9907;42.676;26.348;2022-10-16T06:21:27;6.33;;;5.27;;
19525;SDS011;9907;42.676;26.348;2022-10-16T06:23:54;6.40;;;4.80;;
19525;SDS011;9907;42.676;26.348;2022-10-16T06:26:23;10.33;;;5.40;;
19525;SDS011;9907;42.676;26.348;2022-10-16T06:28:50;10.20;;;5.60;;
19525;SDS011;9907;42.676;26.348;2022-10-16T06:31:15;6.73;;;5.00;;
19525;SDS011;9907;42.676;26.348;2022-10-16T06:33:41;8.67;;;5.03;;
19525;SDS011;9907;42.676;26.348;2022-10-16T06:36:08;8.33;;;5.93;;
19525;SDS011;9907;42.676;26.348;2022-10-16T06:38:36;10.63;;;6.33;;
19525;SDS011;9907;42.676;26.348;2022-10-16T06:41:03;8.10;;;5.70;;
19525;SDS011;9907;42.676;26.348;2022-10-16T06:43:30;6.07;;;5.47;;
19525;SDS011;9907;42.676;26.348;2022-10-16T06:46:00;10.50;;;6.90;;
19525;SDS011;9907;42.676;26.348;2022-10-16T06:48:26;9.77;;;6.27;;
19525;SDS011;9907;42.676;26.348;2022-10-16T06:50:56;7.87;;;5.40;;
19525;SDS011;9907;42.676;26.348;2022-10-16T06:53:22;10.60;;;6.00;;
19525;SDS011;9907;42.676;26.348;2022-10-16T06:55:50;10.07;;;6.00;;
19525;SDS011;9907;42.676;26.348;2022-10-16T06:58:15;5.97;;;4.57;;
19525;SDS011;9907;42.676;26.348;2022-10-16T07:00:41;7.33;;;5.60;;
19525;SDS011;9907;42.676;26.348;2022-10-16T07:03:07;9.93;;;6.40;;
19525;SDS011;9907;42.676;26.348;2022-10-16T07:05:36;9.10;;;4.97;;
19525;SDS011;9907;42.676;26.348;2022-10-16T07:08:03;6.83;;;5.07;;
19525;SDS011;9907;42.676;26.348;2022-10-16T07:10:30;5.87;;;4.10;;
19525;SDS011;9907;42.676;26.348;2022-10-16T07:12:56;8.60;;;4.37;;
19525;SDS011;9907;42.676;26.348;2022-10-16T07:15:21;6.83;;;4.10;;
19525;SDS011;9907;42.676;26.348;2022-10-16T07:17:47;5.07;;;3.80;;
19525;SDS011;9907;42.676;26.348;2022-10-16T07:20:12;4.43;;;3.43;;
19525;SDS011;9907;42.676;26.348;2022-10-16T07:22:38;6.37;;;4.43;;
19525;SDS011;9907;42.676;26.348;2022-10-16T07:25:03;6.40;;;3.30;;
19525;SDS011;9907;42.676;26.348;2022-10-16T07:27:29;6.83;;;3.27;;
19525;SDS011;9907;42.676;26.348;2022-10-16T07:29:54;6.93;;;3.77;;
19525;SDS011;9907;42.676;26.348;2022-10-16T07:32:20;6.37;;;4.33;;
19525;SDS011;9907;42.676;26.348;2022-10-16T07:34:45;6.97;;;4.00;;
19525;SDS011;9907;42.676;26.348;2022-10-16T07:37:11;10.03;;;6.13;;
19525;SDS011;9907;42.676;26.348;2022-10-16T07:39:36;9.93;;;4.27;;
19525;SDS011;9907;42.676;26.348;2022-10-16T07:42:02;3.90;;;2.90;;
19525;SDS011;9907;42.676;26.348;2022-10-16T07:44:27;4.13;;;2.60;;
19525;SDS011;9907;42.676;26.348;2022-10-16T07:46:53;5.93;;;3.20;;
19525;SDS011;9907;42.676;26.348;2022-10-16T07:49:18;4.63;;;3.10;;
19525;SDS011;9907;42.676;26.348;2022-10-16T07:51:43;5.97;;;3.60;;
19525;SDS011;9907;42.676;26.348;2022-10-16T07:54:09;6.17;;;3.10;;
19525;SDS011;9907;42.676;26.348;2022-10-16T07:56:35;4.80;;;3.13;;
19525;SDS011;9907;42.676;26.348;2022-10-16T07:59:00;4.80;;;3.80;;
19525;SDS011;9907;42.676;26.348;2022-10-16T08:01:26;3.50;;;2.77;;
19525;SDS011;9907;42.676;26.348;2022-10-16T08:03:52;5.40;;;3.33;;
19525;SDS011;9907;42.676;26.348;2022-10-16T08:06:18;5.77;;;2.50;;
19525;SDS011;9907;42.676;26.348;2022-10-16T08:08:45;3.97;;;2.60;;
19525;SDS011;9907;42.676;26.348;2022-10-16T08:11:10;4.90;;;3.00;;
19525;SDS011;9907;42.676;26.348;2022-10-16T08:13:36;6.30;;;2.83;;
19525;SDS011;9907;42.676;26.348;2022-10-16T08:16:02;4.37;;;2.27;;
19525;SDS011;9907;42.676;26.348;2022-10-16T08:18:38;4.87;;;2.40;;
19525;SDS011;9907;42.676;26.348;2022-10-16T08:21:04;4.73;;;2.57;;
19525;SDS011;9907;42.676;26.348;2022-10-16T08:23:30;4.03;;;2.50;;
19525;SDS011;9907;42.676;26.348;2022-10-16T08:26:02;3.73;;;2.73;;
19525;SDS011;9907;42.676;26.348;2022-10-16T08:28:29;3.47;;;2.77;;
19525;SDS011;9907;42.676;26.348;2022-10-16T08:30:55;6.53;;;3.40;;
19525;SDS011;9907;42.676;26.348;2022-10-16T08:33:22;4.97;;;3.53;;
19525;SDS011;9907;42.676;26.348;2022-10-16T08:35:53;5.90;;;2.93;;
19525;SDS011;9907;42.676;26.348;2022-10-16T08:38:19;5.90;;;3.23;;
19525;SDS011;9907;42.676;26.348;2022-10-16T08:40:45;4.17;;;2.60;;
19525;SDS011;9907;42.676;26.348;2022-10-16T08:45:51;4.40;;;3.00;;
19525;SDS011;9907;42.676;26.348;2022-10-16T08:51:22;4.67;;;2.60;;
19525;SDS011;9907;42.676;26.348;2022-10-16T08:54:01;4.87;;;2.60;;
19525;SDS011;9907;42.676;26.348;2022-10-16T08:56:28;4.70;;;2.50;;
19525;SDS011;9907;42.676;26.348;2022-10-16T08:58:54;3.37;;;2.67;;
19525;SDS011;9907;42.676;26.348;2022-10-16T09:01:21;4.10;;;2.50;;
19525;SDS011;9907;42.676;26.348;2022-10-16T09:09:22;3.30;;;3.00;;
19525;SDS011;9907;42.676;26.348;2022-10-16T09:12:03;6.50;;;4.10;;
19525;SDS011;9907;42.676;26.348;2022-10-16T09:17:30;4.43;;;2.83;;
19525;SDS011;9907;42.676;26.348;2022-10-16T09:20:13;5.03;;;4.20;;
19525;SDS011;9907;42.676;26.348;2022-10-16T09:23:17;4.07;;;2.60;;
19525;SDS011;9907;42.676;26.348;2022-10-16T09:25:43;6.40;;;3.10;;
19525;SDS011;9907;42.676;26.348;2022-10-16T09:28:14;3.43;;;2.47;;
19525;SDS011;9907;42.676;26.348;2022-10-16T09:30:40;4.40;;;2.30;;
19525;SDS011;9907;42.676;26.348;2022-10-16T09:33:06;6.10;;;2.63;;
19525;SDS011;9907;42.676;26.348;2022-10-16T09:35:47;4.97;;;2.63;;
19525;SDS011;9907;42.676;26.348;2022-10-16T09:38:22;5.63;;;3.10;;
19525;SDS011;9907;42.676;26.348;2022-10-16T09:40:48;2.90;;;2.60;;
19525;SDS011;9907;42.676;26.348;2022-10-16T09:46:08;3.30;;;2.30;;
19525;SDS011;9907;42.676;26.348;2022-10-16T09:48:49;4.67;;;2.80;;
19525;SDS011;9907;42.676;26.348;2022-10-16T09:51:21;3.83;;;2.30;;
19525;SDS011;9907;42.676;26.348;2022-10-16T09:53:58;4.93;;;2.80;;
19525;SDS011;9907;42.676;26.348;2022-10-16T09:56:29;3.93;;;2.60;;
19525;SDS011;9907;42.676;26.348;2022-10-16T09:59:02;2.63;;;2.20;;
19525;SDS011;9907;42.676;26.348;2022-10-16T10:01:41;2.50;;;2.30;;
19525;SDS011;9907;42.676;26.348;2022-10-16T10:04:09;6.67;;;4.47;;
19525;SDS011;9907;42.676;26.348;2022-10-16T10:17:09;3.60;;;3.00;;
19525;SDS011;9907;42.676;26.348;2022-10-16T10:19:53;43.93;;;22.13;;
19525;SDS011;9907;42.676;26.348;2022-10-16T10:30:15;16.43;;;9.13;;
19525;SDS011;9907;42.676;26.348;2022-10-16T10:35:18;14.53;;;7.87;;
19525;SDS011;9907;42.676;26.348;2022-10-16T10:46:34;2.40;;;2.20;;
19525;SDS011;9907;42.676;26.348;2022-10-16T11:10:52;4.57;;;3.13;;
19525;SDS011;9907;42.676;26.348;2022-10-16T11:13:39;11.07;;;5.50;;
19525;SDS011;9907;42.676;26.348;2022-10-16T11:16:23;7.17;;;3.73;;
19525;SDS011;9907;42.676;26.348;2022-10-16T11:19:03;2.87;;;2.50;;
19525;SDS011;9907;42.676;26.348;2022-10-16T11:21:48;2.57;;;2.30;;
19525;SDS011;9907;42.676;26.348;2022-10-16T11:27:15;3.07;;;2.60;;
19525;SDS011;9907;42.676;26.348;2022-10-16T11:29:45;3.73;;;2.63;;
19525;SDS011;9907;42.676;26.348;2022-10-16T11:32:26;4.30;;;2.23;;
19525;SDS011;9907;42.676;26.348;2022-10-16T11:35:02;2.87;;;2.33;;
19525;SDS011;9907;42.676;26.348;2022-10-16T11:37:40;4.90;;;2.93;;
19525;SDS011;9907;42.676;26.348;2022-10-16T11:40:25;6.07;;;3.13;;
19525;SDS011;9907;42.676;26.348;2022-10-16T11:43:04;6.87;;;3.20;;
19525;SDS011;9907;42.676;26.348;2022-10-16T11:45:41;4.80;;;3.17;;
19525;SDS011;9907;42.676;26.348;2022-10-16T11:56:27;3.87;;;2.37;;
19525;SDS011;9907;42.676;26.348;2022-10-16T12:04:26;5.33;;;2.43;;
19525;SDS011;9907;42.676;26.348;2022-10-16T12:09:35;3.07;;;2.20;;
19525;SDS011;9907;42.676;26.348;2022-10-16T12:12:03;4.77;;;2.40;;
19525;SDS011;9907;42.676;26.348;2022-10-16T12:16:58;5.47;;;2.43;;
19525;SDS011;9907;42.676;26.348;2022-10-16T12:19:27;3.00;;;2.70;;
19525;SDS011;9907;42.676;26.348;2022-10-16T12:21:58;2.73;;;2.53;;
19525;SDS011;9907;42.676;26.348;2022-10-16T12:27:03;2.30;;;2.10;;
19525;SDS011;9907;42.676;26.348;2022-10-16T12:32:03;5.87;;;2.23;;
19525;SDS011;9907;42.676;26.348;2022-10-16T12:39:34;2.90;;;2.10;;
19525;SDS011;9907;42.676;26.348;2022-10-16T12:42:05;3.10;;;2.07;;
19525;SDS011;9907;42.676;26.348;2022-10-16T12:45:21;4.47;;;2.73;;
19525;SDS011;9907;42.676;26.348;2022-10-16T12:47:53;5.57;;;2.27;;
19525;SDS011;9907;42.676;26.348;2022-10-16T12:52:55;5.37;;;2.10;;
19525;SDS011;9907;42.676;26.348;2022-10-16T12:55:21;2.93;;;1.70;;
19525;SDS011;9907;42.676;26.348;2022-10-16T13:28:11;3.33;;;2.30;;
19525;SDS011;9907;42.676;26.348;2022-10-16T13:30:42;3.57;;;2.10;;
19525;SDS011;9907;42.676;26.348;2022-10-16T13:33:13;3.97;;;2.50;;
19525;SDS011;9907;42.676;26.348;2022-10-16T13:35:51;2.57;;;2.10;;
19525;SDS011;9907;42.676;26.348;2022-10-16T13:38:26;4.83;;;3.43;;
19525;SDS011;9907;42.676;26.348;2022-10-16T13:40:54;3.20;;;2.70;;
19525;SDS011;9907;42.676;26.348;2022-10-16T13:43:28;14.37;;;2.60;;
19525;SDS011;9907;42.676;26.348;2022-10-16T13:46:23;5.03;;;2.50;;
19525;SDS011;9907;42.676;26.348;2022-10-16T13:48:58;4.33;;;2.40;;
19525;SDS011;9907;42.676;26.348;2022-10-16T13:51:25;2.50;;;2.27;;
19525;SDS011;9907;42.676;26.348;2022-10-16T13:53:51;3.27;;;2.30;;
19525;SDS011;9907;42.676;26.348;2022-10-16T13:56:18;4.23;;;2.57;;
19525;SDS011;9907;42.676;26.348;2022-10-16T13:58:46;3.90;;;2.00;;
19525;SDS011;9907;42.676;26.348;2022-10-16T14:01:23;2.50;;;2.13;;
19525;SDS011;9907;42.676;26.348;2022-10-16T14:03:51;3.53;;;1.90;;
19525;SDS011;9907;42.676;26.348;2022-10-16T14:06:17;2.63;;;2.30;;
19525;SDS011;9907;42.676;26.348;2022-10-16T14:08:49;3.47;;;2.20;;
19525;SDS011;9907;42.676;26.348;2022-10-16T14:11:22;3.33;;;2.80;;
19525;SDS011;9907;42.676;26.348;2022-10-16T14:13:49;6.60;;;2.80;;
19525;SDS011;9907;42.676;26.348;2022-10-16T14:16:17;3.03;;;2.10;;
19525;SDS011;9907;42.676;26.348;2022-10-16T14:18:50;4.37;;;2.50;;
19525;SDS011;9907;42.676;26.348;2022-10-16T14:21:22;7.77;;;3.90;;
19525;SDS011;9907;42.676;26.348;2022-10-16T14:23:49;4.73;;;3.00;;
19525;SDS011;9907;42.676;26.348;2022-10-16T14:26:16;5.47;;;3.10;;
19525;SDS011;9907;42.676;26.348;2022-10-16T14:28:44;3.13;;;2.80;;
19525;SDS011;9907;42.676;26.348;2022-10-16T14:33:51;6.13;;;3.37;;
19525;SDS011;9907;42.676;26.348;2022-10-16T14:36:16;4.13;;;2.90;;
19525;SDS011;9907;42.676;26.348;2022-10-16T14:41:28;2.60;;;2.17;;
19525;SDS011;9907;42.676;26.348;2022-10-16T14:43:56;7.60;;;2.93;;
19525;SDS011;9907;42.676;26.348;2022-10-16T14:46:36;4.73;;;2.60;;
19525;SDS011;9907;42.676;26.348;2022-10-16T14:49:11;8.50;;;2.40;;
19525;SDS011;9907;42.676;26.348;2022-10-16T14:51:41;2.57;;;2.20;;
19525;SDS011;9907;42.676;26.348;2022-10-16T14:54:09;3.40;;;2.70;;
19525;SDS011;9907;42.676;26.348;2022-10-16T14:56:57;5.43;;;3.27;;
19525;SDS011;9907;42.676;26.348;2022-10-16T14:59:36;4.50;;;3.53;;
19525;SDS011;9907;42.676;26.348;2022-10-16T15:02:19;4.67;;;3.10;;
19525;SDS011;9907;42.676;26.348;2022-10-16T15:04:45;4.03;;;3.43;;
19525;SDS011;9907;42.676;26.348;2022-10-16T15:07:11;3.70;;;3.00;;
19525;SDS011;9907;42.676;26.348;2022-10-16T15:09:36;2.87;;;2.60;;
19525;SDS011;9907;42.676;26.348;2022-10-16T15:12:02;8.13;;;4.27;;
19525;SDS011;9907;42.676;26.348;2022-10-16T15:14:27;11.37;;;6.30;;
19525;SDS011;9907;42.676;26.348;2022-10-16T15:16:53;12.03;;;7.70;;
19525;SDS011;9907;42.676;26.348;2022-10-16T15:19:18;6.57;;;4.43;;
19525;SDS011;9907;42.676;26.348;2022-10-16T15:21:44;23.63;;;12.00;;
19525;SDS011;9907;42.676;26.348;2022-10-16T15:24:11;12.83;;;8.63;;
19525;SDS011;9907;42.676;26.348;2022-10-16T15:26:37;9.43;;;6.97;;
19525;SDS011;9907;42.676;26.348;2022-10-16T15:29:03;5.13;;;3.80;;
19525;SDS011;9907;42.676;26.348;2022-10-16T15:31:28;4.27;;;3.20;;
19525;SDS011;9907;42.676;26.348;2022-10-16T15:33:53;4.60;;;3.27;;
19525;SDS011;9907;42.676;26.348;2022-10-16T15:36:33;10.83;;;6.40;;
19525;SDS011;9907;42.676;26.348;2022-10-16T15:39:02;5.43;;;3.30;;
19525;SDS011;9907;42.676;26.348;2022-10-16T15:41:36;4.83;;;2.60;;
19525;SDS011;9907;42.676;26.348;2022-10-16T15:44:02;6.23;;;2.57;;
19525;SDS011;9907;42.676;26.348;2022-10-16T15:46:27;3.17;;;2.30;;
19525;SDS011;9907;42.676;26.348;2022-10-16T15:48:56;5.07;;;3.07;;
19525;SDS011;9907;42.676;26.348;2022-10-16T15:51:23;6.03;;;3.43;;
19525;SDS011;9907;42.676;26.348;2022-10-16T15:54:00;7.23;;;3.40;;
19525;SDS011;9907;42.676;26.348;2022-10-16T15:56:26;5.00;;;2.90;;
19525;SDS011;9907;42.676;26.348;2022-10-16T15:58:53;4.87;;;3.23;;
19525;SDS011;9907;42.676;26.348;2022-10-16T16:01:19;6.60;;;2.73;;
19525;SDS011;9907;42.676;26.348;2022-10-16T16:03:45;4.00;;;2.93;;
19525;SDS011;9907;42.676;26.348;2022-10-16T16:06:12;4.40;;;3.00;;
19525;SDS011;9907;42.676;26.348;2022-10-16T16:08:38;4.00;;;2.93;;
19525;SDS011;9907;42.676;26.348;2022-10-16T16:13:31;5.77;;;3.90;;
19525;SDS011;9907;42.676;26.348;2022-10-16T16:15:57;8.77;;;6.00;;
19525;SDS011;9907;42.676;26.348;2022-10-16T16:18:23;6.33;;;3.40;;
19525;SDS011;9907;42.676;26.348;2022-10-16T16:20:49;5.20;;;3.63;;
19525;SDS011;9907;42.676;26.348;2022-10-16T16:23:15;4.83;;;3.60;;
19525;SDS011;9907;42.676;26.348;2022-10-16T16:25:41;4.80;;;3.40;;
19525;SDS011;9907;42.676;26.348;2022-10-16T16:28:07;6.63;;;4.40;;
19525;SDS011;9907;42.676;26.348;2022-10-16T16:30:35;4.80;;;3.30;;
19525;SDS011;9907;42.676;26.348;2022-10-16T16:33:00;17.93;;;9.20;;
19525;SDS011;9907;42.676;26.348;2022-10-16T16:35:26;8.40;;;5.00;;
19525;SDS011;9907;42.676;26.348;2022-10-16T16:37:51;9.50;;;5.90;;
19525;SDS011;9907;42.676;26.348;2022-10-16T16:40:17;8.17;;;4.30;;
19525;SDS011;9907;42.676;26.348;2022-10-16T16:42:42;7.97;;;6.17;;
19525;SDS011;9907;42.676;26.348;2022-10-16T16:45:08;10.37;;;6.20;;
19525;SDS011;9907;42.676;26.348;2022-10-16T16:47:33;8.20;;;5.67;;
19525;SDS011;9907;42.676;26.348;2022-10-16T16:49:59;7.57;;;4.47;;
19525;SDS011;9907;42.676;26.348;2022-10-16T16:52:29;6.43;;;4.20;;
19525;SDS011;9907;42.676;26.348;2022-10-16T16:54:55;6.37;;;4.93;;
19525;SDS011;9907;42.676;26.348;2022-10-16T16:57:20;6.37;;;5.77;;
19525;SDS011;9907;42.676;26.348;2022-10-16T16:59:46;5.80;;;4.00;;
19525;SDS011;9907;42.676;26.348;2022-10-16T17:02:12;5.50;;;4.00;;
19525;SDS011;9907;42.676;26.348;2022-10-16T17:04:37;6.73;;;3.50;;
19525;SDS011;9907;42.676;26.348;2022-10-16T17:07:03;4.27;;;3.60;;
19525;SDS011;9907;42.676;26.348;2022-10-16T17:09:32;5.13;;;3.53;;
19525;SDS011;9907;42.676;26.348;2022-10-16T17:11:58;6.63;;;3.57;;
19525;SDS011;9907;42.676;26.348;2022-10-16T17:14:23;6.50;;;3.90;;
19525;SDS011;9907;42.676;26.348;2022-10-16T17:16:49;11.80;;;7.97;;
19525;SDS011;9907;42.676;26.348;2022-10-16T17:19:15;8.53;;;5.73;;
19525;SDS011;9907;42.676;26.348;2022-10-16T17:21:43;6.13;;;4.40;;
19525;SDS011;9907;42.676;26.348;2022-10-16T17:24:08;5.03;;;3.10;;
19525;SDS011;9907;42.676;26.348;2022-10-16T17:26:35;3.20;;;2.90;;
19525;SDS011;9907;42.676;26.348;2022-10-16T17:29:05;5.90;;;4.30;;
19525;SDS011;9907;42.676;26.348;2022-10-16T17:31:33;8.17;;;4.77;;